Terminal Aerodrome Forecast
Issued by NWS

Home | Current Version | Previous Version | Text Only | Print | Product List | Glossary On
Versions: 1 2 3 4 5 6 7 8 9 10 11 12 13 14 15 16 17 18 19 20 21 22 23 24 25 26 27
683
FTUS46 KSEW 231541 AAB
TAFSEA
TAF AMD
KSEA 231541Z 2316/2418 14008KT P6SM -RA SCT035 OVC045
     FM231700 13008KT 6SM -RA BR SCT018 OVC025 WS020/19035KT
     FM240300 16009KT P6SM -RA SCT025 OVC035
     FM240800 16010KT P6SM -RA OVC020=

USA.gov is the U.S. government's official web portal to all federal, state and local government web resources and services.